sensor_id;sensor_type;location;lat;lon;timestamp;temperature;humidity
4725;DHT22;2376;53.544;10.226;2022-08-27T00:01:06;21.30;99.90
4725;DHT22;2376;53.544;10.226;2022-08-27T00:03:33;21.40;99.90
4725;DHT22;2376;53.544;10.226;2022-08-27T00:06:00;21.40;99.90
4725;DHT22;2376;53.544;10.226;2022-08-27T00:08:26;21.40;99.90
4725;DHT22;2376;53.544;10.226;2022-08-27T00:10:54;21.40;99.90
4725;DHT22;2376;53.544;10.226;2022-08-27T00:13:21;21.30;99.90
4725;DHT22;2376;53.544;10.226;2022-08-27T00:15:48;21.30;99.90
4725;DHT22;2376;53.544;10.226;2022-08-27T00:18:15;21.30;99.90
4725;DHT22;2376;53.544;10.226;2022-08-27T00:20:41;21.30;99.90
4725;DHT22;2376;53.544;10.226;2022-08-27T00:23:09;21.30;99.90
4725;DHT22;2376;53.544;10.226;2022-08-27T00:25:35;21.30;99.90
4725;DHT22;2376;53.544;10.226;2022-08-27T00:28:03;21.30;99.90
4725;DHT22;2376;53.544;10.226;2022-08-27T00:30:30;21.40;99.90
4725;DHT22;2376;53.544;10.226;2022-08-27T00:32:57;21.40;99.90
4725;DHT22;2376;53.544;10.226;2022-08-27T00:35:23;21.40;99.90
4725;DHT22;2376;53.544;10.226;2022-08-27T00:37:51;21.30;99.90
4725;DHT22;2376;53.544;10.226;2022-08-27T00:40:20;21.30;99.90
4725;DHT22;2376;53.544;10.226;2022-08-27T00:42:47;21.20;99.90
4725;DHT22;2376;53.544;10.226;2022-08-27T00:45:18;21.20;99.90
4725;DHT22;2376;53.544;10.226;2022-08-27T00:47:48;21.20;99.90
4725;DHT22;2376;53.544;10.226;2022-08-27T00:50:22;21.20;99.90
4725;DHT22;2376;53.544;10.226;2022-08-27T00:52:52;21.10;99.90
4725;DHT22;2376;53.544;10.226;2022-08-27T00:55:22;21.00;99.90
4725;DHT22;2376;53.544;10.226;2022-08-27T00:57:54;21.10;99.90
4725;DHT22;2376;53.544;10.226;2022-08-27T01:00:24;21.10;99.90
4725;DHT22;2376;53.544;10.226;2022-08-27T01:02:51;21.10;99.90
4725;DHT22;2376;53.544;10.226;2022-08-27T01:05:21;21.20;99.90
4725;DHT22;2376;53.544;10.226;2022-08-27T01:07:52;21.10;99.90
4725;DHT22;2376;53.544;10.226;2022-08-27T01:10:21;21.00;99.90
4725;DHT22;2376;53.544;10.226;2022-08-27T01:12:48;20.90;99.90
4725;DHT22;2376;53.544;10.226;2022-08-27T01:15:17;20.90;99.90
4725;DHT22;2376;53.544;10.226;2022-08-27T01:17:47;20.90;99.90
4725;DHT22;2376;53.544;10.226;2022-08-27T01:20:16;20.80;99.90
4725;DHT22;2376;53.544;10.226;2022-08-27T01:22:50;20.80;99.90
4725;DHT22;2376;53.544;10.226;2022-08-27T01:25:20;20.70;99.90
4725;DHT22;2376;53.544;10.226;2022-08-27T01:27:48;20.70;99.90
4725;DHT22;2376;53.544;10.226;2022-08-27T01:30:19;20.70;99.90
4725;DHT22;2376;53.544;10.226;2022-08-27T01:32:49;20.60;99.90
4725;DHT22;2376;53.544;10.226;2022-08-27T01:35:17;20.60;99.90
4725;DHT22;2376;53.544;10.226;2022-08-27T01:37:47;20.70;99.90
4725;DHT22;2376;53.544;10.226;2022-08-27T01:40:15;20.70;99.90
4725;DHT22;2376;53.544;10.226;2022-08-27T01:42:46;20.70;99.90
4725;DHT22;2376;53.544;10.226;2022-08-27T01:45:15;20.80;99.90
4725;DHT22;2376;53.544;10.226;2022-08-27T01:47:42;20.90;99.90
4725;DHT22;2376;53.544;10.226;2022-08-27T01:50:11;20.90;99.90
4725;DHT22;2376;53.544;10.226;2022-08-27T01:52:38;20.90;99.90
4725;DHT22;2376;53.544;10.226;2022-08-27T01:55:07;20.90;99.90
4725;DHT22;2376;53.544;10.226;2022-08-27T01:57:35;20.90;99.90
4725;DHT22;2376;53.544;10.226;2022-08-27T02:00:07;20.90;99.90
4725;DHT22;2376;53.544;10.226;2022-08-27T02:02:34;20.90;99.90
4725;DHT22;2376;53.544;10.226;2022-08-27T02:05:01;20.80;99.90
4725;DHT22;2376;53.544;10.226;2022-08-27T02:07:28;20.80;99.90
4725;DHT22;2376;53.544;10.226;2022-08-27T02:09:54;20.80;99.90
4725;DHT22;2376;53.544;10.226;2022-08-27T02:12:21;20.90;99.90
4725;DHT22;2376;53.544;10.226;2022-08-27T02:14:48;20.90;99.90
4725;DHT22;2376;53.544;10.226;2022-08-27T02:17:16;20.80;99.90
4725;DHT22;2376;53.544;10.226;2022-08-27T02:19:42;20.80;99.90
4725;DHT22;2376;53.544;10.226;2022-08-27T02:22:09;20.90;99.90
4725;DHT22;2376;53.544;10.226;2022-08-27T02:24:36;20.70;99.90
4725;DHT22;2376;53.544;10.226;2022-08-27T02:27:03;20.70;99.90
4725;DHT22;2376;53.544;10.226;2022-08-27T02:29:30;20.70;99.90
4725;DHT22;2376;53.544;10.226;2022-08-27T02:31:59;20.80;99.90
4725;DHT22;2376;53.544;10.226;2022-08-27T02:34:27;20.70;99.90
4725;DHT22;2376;53.544;10.226;2022-08-27T02:36:54;20.70;99.90
4725;DHT22;2376;53.544;10.226;2022-08-27T02:39:20;20.70;99.90
4725;DHT22;2376;53.544;10.226;2022-08-27T02:41:47;20.70;99.90
4725;DHT22;2376;53.544;10.226;2022-08-27T02:44:14;20.70;99.90
4725;DHT22;2376;53.544;10.226;2022-08-27T02:46:41;20.70;99.90
4725;DHT22;2376;53.544;10.226;2022-08-27T02:49:08;20.70;99.90
4725;DHT22;2376;53.544;10.226;2022-08-27T02:51:37;20.70;99.90
4725;DHT22;2376;53.544;10.226;2022-08-27T02:54:03;20.70;99.90
4725;DHT22;2376;53.544;10.226;2022-08-27T02:56:30;20.70;99.90
4725;DHT22;2376;53.544;10.226;2022-08-27T02:58:57;20.80;99.90
4725;DHT22;2376;53.544;10.226;2022-08-27T03:01:24;20.70;99.90
4725;DHT22;2376;53.544;10.226;2022-08-27T03:03:51;20.60;99.90
4725;DHT22;2376;53.544;10.226;2022-08-27T03:06:17;20.60;99.90
4725;DHT22;2376;53.544;10.226;2022-08-27T03:08:45;20.50;99.90
4725;DHT22;2376;53.544;10.226;2022-08-27T03:11:12;20.50;99.90
4725;DHT22;2376;53.544;10.226;2022-08-27T03:13:39;20.40;99.90
4725;DHT22;2376;53.544;10.226;2022-08-27T03:16:06;20.40;99.90
4725;DHT22;2376;53.544;10.226;2022-08-27T03:18:33;20.50;99.90
4725;DHT22;2376;53.544;10.226;2022-08-27T03:20:59;20.60;99.90
4725;DHT22;2376;53.544;10.226;2022-08-27T03:23:29;20.60;99.90
4725;DHT22;2376;53.544;10.226;2022-08-27T03:26:00;20.60;99.90
4725;DHT22;2376;53.544;10.226;2022-08-27T03:28:29;20.50;99.90
4725;DHT22;2376;53.544;10.226;2022-08-27T03:30:58;20.50;99.90
4725;DHT22;2376;53.544;10.226;2022-08-27T03:33:26;20.60;99.90
4725;DHT22;2376;53.544;10.226;2022-08-27T03:35:53;20.50;99.90
4725;DHT22;2376;53.544;10.226;2022-08-27T03:38:20;20.50;99.90
4725;DHT22;2376;53.544;10.226;2022-08-27T03:40:47;20.50;99.90
4725;DHT22;2376;53.544;10.226;2022-08-27T03:43:16;20.50;99.90
4725;DHT22;2376;53.544;10.226;2022-08-27T03:45:45;20.50;99.90
4725;DHT22;2376;53.544;10.226;2022-08-27T03:48:13;20.50;99.90
4725;DHT22;2376;53.544;10.226;2022-08-27T03:50:41;20.40;99.90
4725;DHT22;2376;53.544;10.226;2022-08-27T03:53:09;20.40;99.90
4725;DHT22;2376;53.544;10.226;2022-08-27T03:55:36;20.30;99.90
4725;DHT22;2376;53.544;10.226;2022-08-27T03:58:03;20.20;99.90
4725;DHT22;2376;53.544;10.226;2022-08-27T04:00:31;20.20;99.90
4725;DHT22;2376;53.544;10.226;2022-08-27T04:02:57;20.20;99.90
4725;DHT22;2376;53.544;10.226;2022-08-27T04:05:24;20.10;99.90
4725;DHT22;2376;53.544;10.226;2022-08-27T04:07:51;20.10;99.90
4725;DHT22;2376;53.544;10.226;2022-08-27T04:10:19;20.10;99.90
4725;DHT22;2376;53.544;10.226;2022-08-27T04:12:45;20.10;99.90
4725;DHT22;2376;53.544;10.226;2022-08-27T04:15:13;20.20;99.90
4725;DHT22;2376;53.544;10.226;2022-08-27T04:17:41;20.10;99.90
4725;DHT22;2376;53.544;10.226;2022-08-27T04:20:09;20.10;99.90
4725;DHT22;2376;53.544;10.226;2022-08-27T04:22:36;20.10;99.90
4725;DHT22;2376;53.544;10.226;2022-08-27T04:25:04;20.10;99.90
4725;DHT22;2376;53.544;10.226;2022-08-27T04:27:31;20.10;99.90
4725;DHT22;2376;53.544;10.226;2022-08-27T04:29:59;20.10;99.90
4725;DHT22;2376;53.544;10.226;2022-08-27T04:32:27;20.10;99.90
4725;DHT22;2376;53.544;10.226;2022-08-27T04:34:57;20.00;99.90
4725;DHT22;2376;53.544;10.226;2022-08-27T04:37:25;20.00;99.90
4725;DHT22;2376;53.544;10.226;2022-08-27T04:39:54;20.00;99.90
4725;DHT22;2376;53.544;10.226;2022-08-27T04:42:21;20.00;99.90
4725;DHT22;2376;53.544;10.226;2022-08-27T04:44:48;20.00;99.90
4725;DHT22;2376;53.544;10.226;2022-08-27T04:47:17;20.00;99.90
4725;DHT22;2376;53.544;10.226;2022-08-27T04:49:43;19.90;99.90
4725;DHT22;2376;53.544;10.226;2022-08-27T04:52:11;20.00;99.90
4725;DHT22;2376;53.544;10.226;2022-08-27T04:54:38;19.90;99.90
4725;DHT22;2376;53.544;10.226;2022-08-27T04:57:05;19.80;99.90
4725;DHT22;2376;53.544;10.226;2022-08-27T04:59:34;19.80;99.90
4725;DHT22;2376;53.544;10.226;2022-08-27T05:02:02;19.90;99.90
4725;DHT22;2376;53.544;10.226;2022-08-27T05:04:29;19.90;99.90
4725;DHT22;2376;53.544;10.226;2022-08-27T05:06:55;20.00;99.90
4725;DHT22;2376;53.544;10.226;2022-08-27T05:09:23;20.00;99.90
4725;DHT22;2376;53.544;10.226;2022-08-27T05:11:50;20.10;99.90
4725;DHT22;2376;53.544;10.226;2022-08-27T05:14:18;20.10;99.90
4725;DHT22;2376;53.544;10.226;2022-08-27T05:16:46;20.10;99.90
4725;DHT22;2376;53.544;10.226;2022-08-27T05:19:13;20.10;99.90
4725;DHT22;2376;53.544;10.226;2022-08-27T05:21:44;20.10;99.90
4725;DHT22;2376;53.544;10.226;2022-08-27T05:24:12;20.10;99.90
4725;DHT22;2376;53.544;10.226;2022-08-27T05:26:40;20.10;99.90
4725;DHT22;2376;53.544;10.226;2022-08-27T05:29:06;20.00;99.90
4725;DHT22;2376;53.544;10.226;2022-08-27T05:31:34;19.90;99.90
4725;DHT22;2376;53.544;10.226;2022-08-27T05:34:01;19.80;99.90
4725;DHT22;2376;53.544;10.226;2022-08-27T05:36:32;19.90;99.90
4725;DHT22;2376;53.544;10.226;2022-08-27T05:39:01;19.90;99.90
4725;DHT22;2376;53.544;10.226;2022-08-27T05:41:30;19.90;99.90
4725;DHT22;2376;53.544;10.226;2022-08-27T05:44:00;19.80;99.90
4725;DHT22;2376;53.544;10.226;2022-08-27T05:46:27;19.90;99.90
4725;DHT22;2376;53.544;10.226;2022-08-27T05:48:56;19.90;99.90
4725;DHT22;2376;53.544;10.226;2022-08-27T05:51:24;19.80;99.90
4725;DHT22;2376;53.544;10.226;2022-08-27T05:53:54;19.70;99.90
4725;DHT22;2376;53.544;10.226;2022-08-27T05:56:23;19.60;99.90
4725;DHT22;2376;53.544;10.226;2022-08-27T05:58:50;19.70;99.90
4725;DHT22;2376;53.544;10.226;2022-08-27T06:01:39;19.80;99.90
4725;DHT22;2376;53.544;10.226;2022-08-27T06:04:06;19.80;99.90
4725;DHT22;2376;53.544;10.226;2022-08-27T06:06:34;19.70;99.90
4725;DHT22;2376;53.544;10.226;2022-08-27T06:09:01;19.70;99.90
4725;DHT22;2376;53.544;10.226;2022-08-27T06:11:28;19.80;99.90
4725;DHT22;2376;53.544;10.226;2022-08-27T06:13:54;19.90;99.90
4725;DHT22;2376;53.544;10.226;2022-08-27T06:16:21;19.90;99.90
4725;DHT22;2376;53.544;10.226;2022-08-27T06:18:50;19.90;99.90
4725;DHT22;2376;53.544;10.226;2022-08-27T06:21:19;19.90;99.90
4725;DHT22;2376;53.544;10.226;2022-08-27T06:23:46;19.90;99.90
4725;DHT22;2376;53.544;10.226;2022-08-27T06:26:15;20.00;99.90
4725;DHT22;2376;53.544;10.226;2022-08-27T06:28:43;19.90;99.90
4725;DHT22;2376;53.544;10.226;2022-08-27T06:31:12;19.90;99.90
4725;DHT22;2376;53.544;10.226;2022-08-27T06:33:39;19.90;99.90
4725;DHT22;2376;53.544;10.226;2022-08-27T06:36:10;20.00;99.90
4725;DHT22;2376;53.544;10.226;2022-08-27T06:38:37;19.90;99.90
4725;DHT22;2376;53.544;10.226;2022-08-27T06:41:05;19.80;99.90
4725;DHT22;2376;53.544;10.226;2022-08-27T06:43:33;19.80;99.90
4725;DHT22;2376;53.544;10.226;2022-08-27T06:46:01;19.80;99.90
4725;DHT22;2376;53.544;10.226;2022-08-27T06:48:28;19.70;99.90
4725;DHT22;2376;53.544;10.226;2022-08-27T06:50:55;19.80;99.90
4725;DHT22;2376;53.544;10.226;2022-08-27T06:53:23;19.90;99.90
4725;DHT22;2376;53.544;10.226;2022-08-27T06:55:50;19.80;99.90
4725;DHT22;2376;53.544;10.226;2022-08-27T06:58:18;19.70;99.90
4725;DHT22;2376;53.544;10.226;2022-08-27T07:00:45;19.70;99.90
4725;DHT22;2376;53.544;10.226;2022-08-27T07:03:12;19.80;99.90
4725;DHT22;2376;53.544;10.226;2022-08-27T07:05:39;19.70;99.90
4725;DHT22;2376;53.544;10.226;2022-08-27T07:08:07;19.70;99.90
4725;DHT22;2376;53.544;10.226;2022-08-27T07:10:35;19.80;99.90
4725;DHT22;2376;53.544;10.226;2022-08-27T07:13:03;19.70;99.90
4725;DHT22;2376;53.544;10.226;2022-08-27T07:15:30;19.60;99.90
4725;DHT22;2376;53.544;10.226;2022-08-27T07:17:57;19.70;99.90
4725;DHT22;2376;53.544;10.226;2022-08-27T07:20:23;19.60;99.90
4725;DHT22;2376;53.544;10.226;2022-08-27T07:22:50;19.60;99.90
4725;DHT22;2376;53.544;10.226;2022-08-27T07:25:19;19.60;99.90
4725;DHT22;2376;53.544;10.226;2022-08-27T07:27:47;19.50;99.90
4725;DHT22;2376;53.544;10.226;2022-08-27T07:30:16;19.60;99.90
4725;DHT22;2376;53.544;10.226;2022-08-27T07:32:43;19.60;99.90
4725;DHT22;2376;53.544;10.226;2022-08-27T07:35:11;19.60;99.90
4725;DHT22;2376;53.544;10.226;2022-08-27T07:37:39;19.50;99.90
4725;DHT22;2376;53.544;10.226;2022-08-27T07:40:10;19.60;99.90
4725;DHT22;2376;53.544;10.226;2022-08-27T07:42:37;19.50;99.90
4725;DHT22;2376;53.544;10.226;2022-08-27T07:45:23;19.50;99.90
4725;DHT22;2376;53.544;10.226;2022-08-27T07:47:50;19.50;99.90
4725;DHT22;2376;53.544;10.226;2022-08-27T07:50:17;19.50;99.90
4725;DHT22;2376;53.544;10.226;2022-08-27T07:52:44;19.50;99.90
4725;DHT22;2376;53.544;10.226;2022-08-27T07:55:11;19.60;99.90
4725;DHT22;2376;53.544;10.226;2022-08-27T07:57:38;19.60;99.90
4725;DHT22;2376;53.544;10.226;2022-08-27T08:00:07;19.70;99.90
4725;DHT22;2376;53.544;10.226;2022-08-27T08:02:37;19.60;99.90
4725;DHT22;2376;53.544;10.226;2022-08-27T08:05:05;19.60;99.90
4725;DHT22;2376;53.544;10.226;2022-08-27T08:07:32;19.70;99.90
4725;DHT22;2376;53.544;10.226;2022-08-27T08:09:59;19.80;99.90
4725;DHT22;2376;53.544;10.226;2022-08-27T08:12:26;19.70;99.90
4725;DHT22;2376;53.544;10.226;2022-08-27T08:14:53;19.80;99.90
4725;DHT22;2376;53.544;10.226;2022-08-27T08:17:22;19.90;99.90
4725;DHT22;2376;53.544;10.226;2022-08-27T08:19:51;20.00;99.90
4725;DHT22;2376;53.544;10.226;2022-08-27T08:22:18;19.90;99.90
4725;DHT22;2376;53.544;10.226;2022-08-27T08:24:45;19.80;99.90
4725;DHT22;2376;53.544;10.226;2022-08-27T08:27:11;19.80;99.90
4725;DHT22;2376;53.544;10.226;2022-08-27T08:29:38;19.70;99.90
4725;DHT22;2376;53.544;10.226;2022-08-27T08:32:06;19.80;99.90
4725;DHT22;2376;53.544;10.226;2022-08-27T08:34:33;19.80;99.90
4725;DHT22;2376;53.544;10.226;2022-08-27T08:37:03;19.80;99.90
4725;DHT22;2376;53.544;10.226;2022-08-27T08:39:29;19.80;99.90
4725;DHT22;2376;53.544;10.226;2022-08-27T08:41:58;19.90;99.90
4725;DHT22;2376;53.544;10.226;2022-08-27T08:44:28;19.90;99.90
4725;DHT22;2376;53.544;10.226;2022-08-27T08:47:00;19.90;99.90
4725;DHT22;2376;53.544;10.226;2022-08-27T08:49:34;19.80;99.90
4725;DHT22;2376;53.544;10.226;2022-08-27T08:52:13;19.80;99.90
4725;DHT22;2376;53.544;10.226;2022-08-27T08:54:43;19.80;99.90
4725;DHT22;2376;53.544;10.226;2022-08-27T08:57:17;19.90;99.90
4725;DHT22;2376;53.544;10.226;2022-08-27T08:59:53;19.90;99.90
4725;DHT22;2376;53.544;10.226;2022-08-27T09:02:20;19.90;99.90
4725;DHT22;2376;53.544;10.226;2022-08-27T09:04:47;19.90;99.90
4725;DHT22;2376;53.544;10.226;2022-08-27T09:07:20;20.00;99.90
4725;DHT22;2376;53.544;10.226;2022-08-27T09:09:55;19.90;99.90
4725;DHT22;2376;53.544;10.226;2022-08-27T09:12:26;19.80;99.90
4725;DHT22;2376;53.544;10.226;2022-08-27T09:14:58;19.70;99.90
4725;DHT22;2376;53.544;10.226;2022-08-27T09:17:26;19.60;99.90
4725;DHT22;2376;53.544;10.226;2022-08-27T09:19:53;19.50;99.90
4725;DHT22;2376;53.544;10.226;2022-08-27T09:22:26;19.50;99.90
4725;DHT22;2376;53.544;10.226;2022-08-27T09:25:05;19.50;99.90
4725;DHT22;2376;53.544;10.226;2022-08-27T09:27:35;19.50;99.90
4725;DHT22;2376;53.544;10.226;2022-08-27T09:30:06;19.50;99.90
4725;DHT22;2376;53.544;10.226;2022-08-27T09:32:33;19.50;99.90
4725;DHT22;2376;53.544;10.226;2022-08-27T09:35:03;19.40;99.90
4725;DHT22;2376;53.544;10.226;2022-08-27T09:37:34;19.50;99.90
4725;DHT22;2376;53.544;10.226;2022-08-27T09:40:07;19.60;99.90
4725;DHT22;2376;53.544;10.226;2022-08-27T09:42:39;19.70;99.90
4725;DHT22;2376;53.544;10.226;2022-08-27T09:45:08;19.80;99.90
4725;DHT22;2376;53.544;10.226;2022-08-27T09:47:43;19.90;99.90
4725;DHT22;2376;53.544;10.226;2022-08-27T09:50:11;20.10;99.90
4725;DHT22;2376;53.544;10.226;2022-08-27T09:52:48;20.10;99.90
4725;DHT22;2376;53.544;10.226;2022-08-27T09:55:26;20.10;99.90
4725;DHT22;2376;53.544;10.226;2022-08-27T09:57:53;20.10;99.90
4725;DHT22;2376;53.544;10.226;2022-08-27T10:00:31;20.10;99.90
4725;DHT22;2376;53.544;10.226;2022-08-27T10:02:59;20.00;99.90
4725;DHT22;2376;53.544;10.226;2022-08-27T10:05:30;20.10;99.90
4725;DHT22;2376;53.544;10.226;2022-08-27T10:08:00;20.00;99.90
4725;DHT22;2376;53.544;10.226;2022-08-27T10:10:36;20.00;99.90
4725;DHT22;2376;53.544;10.226;2022-08-27T10:13:07;20.10;99.90
4725;DHT22;2376;53.544;10.226;2022-08-27T10:15:38;20.10;99.90
4725;DHT22;2376;53.544;10.226;2022-08-27T10:18:09;20.20;99.90
4725;DHT22;2376;53.544;10.226;2022-08-27T10:20:40;20.10;99.90
4725;DHT22;2376;53.544;10.226;2022-08-27T10:23:19;20.10;99.90
4725;DHT22;2376;53.544;10.226;2022-08-27T10:25:54;20.20;99.90
4725;DHT22;2376;53.544;10.226;2022-08-27T10:28:31;20.00;99.90
4725;DHT22;2376;53.544;10.226;2022-08-27T10:31:16;20.00;99.90
4725;DHT22;2376;53.544;10.226;2022-08-27T10:33:56;20.00;99.90
4725;DHT22;2376;53.544;10.226;2022-08-27T10:36:31;20.00;99.90
4725;DHT22;2376;53.544;10.226;2022-08-27T10:39:08;20.00;99.90
4725;DHT22;2376;53.544;10.226;2022-08-27T10:41:42;20.00;99.90
4725;DHT22;2376;53.544;10.226;2022-08-27T10:44:28;20.00;99.90
4725;DHT22;2376;53.544;10.226;2022-08-27T10:47:14;20.00;99.90
4725;DHT22;2376;53.544;10.226;2022-08-27T10:49:47;20.10;99.90
4725;DHT22;2376;53.544;10.226;2022-08-27T10:52:20;20.10;99.90
4725;DHT22;2376;53.544;10.226;2022-08-27T10:54:57;20.20;99.90
4725;DHT22;2376;53.544;10.226;2022-08-27T11:00:41;20.10;99.90
4725;DHT22;2376;53.544;10.226;2022-08-27T11:03:10;20.10;99.90
4725;DHT22;2376;53.544;10.226;2022-08-27T11:05:42;20.10;99.90
4725;DHT22;2376;53.544;10.226;2022-08-27T11:08:14;20.20;99.90
4725;DHT22;2376;53.544;10.226;2022-08-27T11:10:46;20.20;99.90
4725;DHT22;2376;53.544;10.226;2022-08-27T11:13:18;20.20;99.90
4725;DHT22;2376;53.544;10.226;2022-08-27T11:15:48;20.10;99.90
4725;DHT22;2376;53.544;10.226;2022-08-27T11:18:22;20.10;99.90
4725;DHT22;2376;53.544;10.226;2022-08-27T11:20:57;20.00;99.90
4725;DHT22;2376;53.544;10.226;2022-08-27T11:23:29;20.10;99.90
4725;DHT22;2376;53.544;10.226;2022-08-27T11:26:01;20.20;99.90
4725;DHT22;2376;53.544;10.226;2022-08-27T11:28:32;20.30;99.90
4725;DHT22;2376;53.544;10.226;2022-08-27T11:31:06;20.40;99.90
4725;DHT22;2376;53.544;10.226;2022-08-27T11:33:38;20.50;99.90
4725;DHT22;2376;53.544;10.226;2022-08-27T11:36:23;20.40;99.90
4725;DHT22;2376;53.544;10.226;2022-08-27T11:38:57;20.40;99.90
4725;DHT22;2376;53.544;10.226;2022-08-27T11:41:44;20.50;99.90
4725;DHT22;2376;53.544;10.226;2022-08-27T11:44:16;20.30;99.90
4725;DHT22;2376;53.544;10.226;2022-08-27T11:46:47;20.40;99.90
4725;DHT22;2376;53.544;10.226;2022-08-27T11:49:24;20.30;99.90
4725;DHT22;2376;53.544;10.226;2022-08-27T11:51:59;20.30;99.90
4725;DHT22;2376;53.544;10.226;2022-08-27T11:54:27;20.40;99.90
4725;DHT22;2376;53.544;10.226;2022-08-27T11:56:57;20.40;99.90
4725;DHT22;2376;53.544;10.226;2022-08-27T11:59:30;20.50;99.90
4725;DHT22;2376;53.544;10.226;2022-08-27T12:02:11;20.60;99.90
4725;DHT22;2376;53.544;10.226;2022-08-27T12:04:43;20.70;99.90
4725;DHT22;2376;53.544;10.226;2022-08-27T12:07:25;20.70;99.90
4725;DHT22;2376;53.544;10.226;2022-08-27T12:10:05;20.70;99.90
4725;DHT22;2376;53.544;10.226;2022-08-27T12:12:44;20.80;99.90
4725;DHT22;2376;53.544;10.226;2022-08-27T12:15:16;20.80;99.90
4725;DHT22;2376;53.544;10.226;2022-08-27T12:17:59;20.90;99.90
4725;DHT22;2376;53.544;10.226;2022-08-27T12:20:37;21.00;99.90
4725;DHT22;2376;53.544;10.226;2022-08-27T12:23:15;21.00;99.90
4725;DHT22;2376;53.544;10.226;2022-08-27T12:26:15;21.00;99.90
4725;DHT22;2376;53.544;10.226;2022-08-27T12:28:44;20.90;99.90
4725;DHT22;2376;53.544;10.226;2022-08-27T12:31:16;20.90;99.90
4725;DHT22;2376;53.544;10.226;2022-08-27T12:33:46;20.90;99.90
4725;DHT22;2376;53.544;10.226;2022-08-27T12:36:16;21.00;99.90
4725;DHT22;2376;53.544;10.226;2022-08-27T12:38:48;21.10;99.90
4725;DHT22;2376;53.544;10.226;2022-08-27T12:41:25;21.10;99.90
4725;DHT22;2376;53.544;10.226;2022-08-27T12:44:03;21.20;99.90
4725;DHT22;2376;53.544;10.226;2022-08-27T12:46:32;21.30;99.90
4725;DHT22;2376;53.544;10.226;2022-08-27T12:49:00;21.20;99.90
4725;DHT22;2376;53.544;10.226;2022-08-27T12:51:31;21.20;99.90
4725;DHT22;2376;53.544;10.226;2022-08-27T12:54:02;21.30;99.90
4725;DHT22;2376;53.544;10.226;2022-08-27T12:56:43;21.30;99.90
4725;DHT22;2376;53.544;10.226;2022-08-27T12:59:38;21.40;99.90
4725;DHT22;2376;53.544;10.226;2022-08-27T13:02:16;21.50;99.90
4725;DHT22;2376;53.544;10.226;2022-08-27T13:04:47;21.50;99.90
4725;DHT22;2376;53.544;10.226;2022-08-27T13:07:24;21.60;99.90
4725;DHT22;2376;53.544;10.226;2022-08-27T13:09:51;21.60;99.90
4725;DHT22;2376;53.544;10.226;2022-08-27T13:12:18;21.60;99.90
4725;DHT22;2376;53.544;10.226;2022-08-27T13:14:46;21.60;99.90
4725;DHT22;2376;53.544;10.226;2022-08-27T13:17:16;21.60;99.90
4725;DHT22;2376;53.544;10.226;2022-08-27T13:19:46;21.80;99.90
4725;DHT22;2376;53.544;10.226;2022-08-27T13:22:20;21.90;99.90
4725;DHT22;2376;53.544;10.226;2022-08-27T13:24:49;22.00;99.90
4725;DHT22;2376;53.544;10.226;2022-08-27T13:27:23;22.10;99.90
4725;DHT22;2376;53.544;10.226;2022-08-27T13:29:51;22.20;99.90
4725;DHT22;2376;53.544;10.226;2022-08-27T13:32:19;22.20;99.90
4725;DHT22;2376;53.544;10.226;2022-08-27T13:34:47;22.20;99.90
4725;DHT22;2376;53.544;10.226;2022-08-27T13:37:23;22.20;99.90
4725;DHT22;2376;53.544;10.226;2022-08-27T13:39:53;22.30;99.90
4725;DHT22;2376;53.544;10.226;2022-08-27T13:42:21;22.50;99.90
4725;DHT22;2376;53.544;10.226;2022-08-27T13:44:51;22.60;99.90
4725;DHT22;2376;53.544;10.226;2022-08-27T13:47:22;22.70;99.90
4725;DHT22;2376;53.544;10.226;2022-08-27T13:49:51;22.70;99.90
4725;DHT22;2376;53.544;10.226;2022-08-27T13:52:29;22.70;99.90
4725;DHT22;2376;53.544;10.226;2022-08-27T13:55:00;22.70;99.90
4725;DHT22;2376;53.544;10.226;2022-08-27T13:57:40;22.80;99.90
4725;DHT22;2376;53.544;10.226;2022-08-27T14:00:16;22.90;99.90
4725;DHT22;2376;53.544;10.226;2022-08-27T14:02:44;22.90;99.90
4725;DHT22;2376;53.544;10.226;2022-08-27T14:05:14;23.00;99.90
4725;DHT22;2376;53.544;10.226;2022-08-27T14:07:44;23.20;99.90
4725;DHT22;2376;53.544;10.226;2022-08-27T14:10:30;23.30;99.90
4725;DHT22;2376;53.544;10.226;2022-08-27T14:13:00;23.50;99.90
4725;DHT22;2376;53.544;10.226;2022-08-27T14:15:31;23.40;99.90
4725;DHT22;2376;53.544;10.226;2022-08-27T14:17:59;23.50;99.90
4725;DHT22;2376;53.544;10.226;2022-08-27T14:20:26;23.70;99.90
4725;DHT22;2376;53.544;10.226;2022-08-27T14:22:53;23.80;99.90
4725;DHT22;2376;53.544;10.226;2022-08-27T14:25:21;24.00;99.90
4725;DHT22;2376;53.544;10.226;2022-08-27T14:27:49;24.00;99.90
4725;DHT22;2376;53.544;10.226;2022-08-27T14:30:18;24.10;99.90
4725;DHT22;2376;53.544;10.226;2022-08-27T14:32:46;24.20;99.90
4725;DHT22;2376;53.544;10.226;2022-08-27T14:35:14;24.30;99.90
4725;DHT22;2376;53.544;10.226;2022-08-27T14:37:42;24.30;99.90
4725;DHT22;2376;53.544;10.226;2022-08-27T14:40:12;24.30;99.90
4725;DHT22;2376;53.544;10.226;2022-08-27T14:42:39;24.10;99.90
4725;DHT22;2376;53.544;10.226;2022-08-27T14:45:07;24.10;99.90
4725;DHT22;2376;53.544;10.226;2022-08-27T14:47:35;24.00;99.90
4725;DHT22;2376;53.544;10.226;2022-08-27T14:50:07;24.10;99.90
4725;DHT22;2376;53.544;10.226;2022-08-27T14:52:35;24.30;99.90
4725;DHT22;2376;53.544;10.226;2022-08-27T14:55:02;24.40;99.90
4725;DHT22;2376;53.544;10.226;2022-08-27T14:57:30;24.50;99.90
4725;DHT22;2376;53.544;10.226;2022-08-27T15:00:00;24.60;99.90
4725;DHT22;2376;53.544;10.226;2022-08-27T15:02:27;24.70;99.90
4725;DHT22;2376;53.544;10.226;2022-08-27T15:05:00;24.70;99.90
4725;DHT22;2376;53.544;10.226;2022-08-27T15:07:36;24.50;99.90
4725;DHT22;2376;53.544;10.226;2022-08-27T15:10:08;24.40;99.90
4725;DHT22;2376;53.544;10.226;2022-08-27T15:12:35;24.30;99.90
4725;DHT22;2376;53.544;10.226;2022-08-27T15:15:04;24.30;99.90
4725;DHT22;2376;53.544;10.226;2022-08-27T15:17:35;24.40;99.90
4725;DHT22;2376;53.544;10.226;2022-08-27T15:20:03;24.40;99.90
4725;DHT22;2376;53.544;10.226;2022-08-27T15:22:33;24.60;99.90
4725;DHT22;2376;53.544;10.226;2022-08-27T15:25:02;24.70;99.90
4725;DHT22;2376;53.544;10.226;2022-08-27T15:27:30;24.80;99.90
4725;DHT22;2376;53.544;10.226;2022-08-27T15:29:57;24.90;99.90
4725;DHT22;2376;53.544;10.226;2022-08-27T15:32:26;24.80;99.90
4725;DHT22;2376;53.544;10.226;2022-08-27T15:34:54;24.80;99.90
4725;DHT22;2376;53.544;10.226;2022-08-27T15:37:21;24.80;99.90
4725;DHT22;2376;53.544;10.226;2022-08-27T15:39:49;24.70;99.90
4725;DHT22;2376;53.544;10.226;2022-08-27T15:42:16;24.70;99.90
4725;DHT22;2376;53.544;10.226;2022-08-27T15:44:45;24.70;99.90
4725;DHT22;2376;53.544;10.226;2022-08-27T15:47:15;24.70;99.90
4725;DHT22;2376;53.544;10.226;2022-08-27T15:49:42;24.70;99.90
4725;DHT22;2376;53.544;10.226;2022-08-27T15:52:12;24.60;99.90
4725;DHT22;2376;53.544;10.226;2022-08-27T15:54:41;24.60;99.90
4725;DHT22;2376;53.544;10.226;2022-08-27T15:57:12;24.60;99.90
4725;DHT22;2376;53.544;10.226;2022-08-27T15:59:40;24.40;99.90
4725;DHT22;2376;53.544;10.226;2022-08-27T16:02:11;24.40;99.90
4725;DHT22;2376;53.544;10.226;2022-08-27T16:04:39;24.40;99.90